createdAt,value
2018-12-01T00:00:15.952Z,53.7
2018-12-01T00:01:17.549Z,53.7
2018-12-01T00:02:19.167Z,53.6
2018-12-01T00:03:21.061Z,53.7
2018-12-01T00:04:22.660Z,53.6
2018-12-01T00:05:23.434Z,53.6
2018-12-01T00:06:24.756Z,53.8
2018-12-01T00:07:26.131Z,53.9
2018-12-01T00:08:27.752Z,53.8
2018-12-01T00:09:29.648Z,53.8
2018-12-01T00:10:30.972Z,53.8
2018-12-01T00:11:32.593Z,53.7
2018-12-01T00:12:34.489Z,53.7
2018-12-01T00:13:36.111Z,53.5
2018-12-01T00:14:38.008Z,53.6
2018-12-01T00:15:39.622Z,53.9
2018-12-01T00:16:41.515Z,53.8
2018-12-01T00:17:42.866Z,54.1
2018-12-01T00:18:44.485Z,53.7
2018-12-01T00:19:46.081Z,53.7
2018-12-01T00:20:47.978Z,54
2018-12-01T00:21:49.872Z,53.9
2018-12-01T00:22:51.214Z,54
2018-12-01T00:23:53.108Z,53.6
2018-12-01T00:24:54.729Z,54
2018-12-01T00:25:56.629Z,53.7
2018-12-01T00:26:58.249Z,53.6
2018-12-01T00:27:59.577Z,53.7
2018-12-01T00:29:00.923Z,53.7
2018-12-01T00:30:02.819Z,53.8
2018-12-01T00:31:04.413Z,53.7
2018-12-01T00:32:06.305Z,53.5
2018-12-01T00:33:07.630Z,53.7
2018-12-01T00:34:08.682Z,53.7
2018-12-01T00:35:10.304Z,53.4
2018-12-01T00:36:12.199Z,53.6
2018-12-01T00:37:13.520Z,53.7
2018-12-01T00:38:15.415Z,53.7
2018-12-01T00:39:17.037Z,53.7
2018-12-01T00:40:18.655Z,53.5
2018-12-01T00:41:20.001Z,53.6
2018-12-01T00:42:21.896Z,53.5
2018-12-01T00:43:23.790Z,53.5
2018-12-01T00:44:25.397Z,53.8
2018-12-01T00:45:27.328Z,53.5
2018-12-01T00:46:29.223Z,53.6
2018-12-01T00:47:30.566Z,53.6
2018-12-01T00:48:32.460Z,53.4
2018-12-01T00:49:33.804Z,53.5
2018-12-01T00:50:35.698Z,53.6
2018-12-01T00:51:37.594Z,53.7
2018-12-01T00:52:38.926Z,53.5
2018-12-01T00:53:40.269Z,53.5
2018-12-01T00:54:41.870Z,53.5
2018-12-01T00:55:43.486Z,53.7
2018-12-01T00:56:45.109Z,53.6
2018-12-01T00:57:46.740Z,53.5
2018-12-01T00:58:48.056Z,53.7
2018-12-01T00:59:49.953Z,53.7
2018-12-01T01:00:51.872Z,53.7
2018-12-01T01:01:53.491Z,53.7
2018-12-01T01:02:55.386Z,53.6
2018-12-01T01:03:56.710Z,54
2018-12-01T01:04:58.328Z,53.8
2018-12-01T01:05:59.951Z,53.8
2018-12-01T01:07:01.569Z,53.6
2018-12-01T01:08:03.468Z,53.9
2018-12-01T01:09:05.360Z,54
2018-12-01T01:10:07.256Z,53.9
2018-12-01T01:11:08.604Z,53.9
2018-12-01T01:12:10.232Z,54.2
2018-12-01T01:13:11.554Z,54.2
2018-12-01T01:14:13.170Z,54.4
2018-12-01T01:15:14.495Z,54.3
2018-12-01T01:16:16.151Z,54.3
2018-12-01T01:17:17.490Z,54.5
2018-12-01T01:18:19.386Z,54.9
2018-12-01T01:19:21.008Z,54.7
2018-12-01T01:20:22.351Z,54.6
2018-12-01T01:21:23.401Z,54.6
2018-12-01T01:22:25.296Z,54.7
2018-12-01T01:23:27.190Z,54.8
2018-12-01T01:24:28.810Z,54.8
2018-12-01T01:25:30.707Z,54.6
2018-12-01T01:26:32.326Z,54.6
2018-12-01T01:27:33.948Z,54.8
2018-12-01T01:28:35.291Z,54.5
2018-12-01T01:29:36.891Z,54.4
2018-12-01T01:30:38.800Z,54.3
2018-12-01T01:31:40.699Z,54.8
2018-12-01T01:32:42.354Z,54.4
2018-12-01T01:33:44.247Z,54.8
2018-12-01T01:34:45.880Z,54.4
2018-12-01T01:35:47.203Z,54.3
2018-12-01T01:36:48.826Z,54.2
2018-12-01T01:37:50.721Z,54.3
2018-12-01T01:38:52.341Z,54.4
2018-12-01T01:39:53.693Z,54.3
2018-12-01T01:40:55.308Z,54.1
2018-12-01T01:41:56.651Z,54.3
2018-12-01T01:42:57.996Z,54.2
2018-12-01T01:43:59.344Z,53.8
2018-12-01T01:45:00.967Z,53.9
2018-12-01T01:46:02.584Z,53.8
2018-12-01T01:47:04.202Z,53.7
2018-12-01T01:48:05.522Z,53.9
2018-12-01T01:49:06.846Z,53.9
2018-12-01T01:50:08.472Z,54
2018-12-01T01:51:09.803Z,54
2018-12-01T01:52:11.421Z,54
2018-12-01T01:53:13.349Z,54
2018-12-01T01:54:14.969Z,53.9
2018-12-01T01:55:16.589Z,53.9
2018-12-01T01:56:18.214Z,54
2018-12-01T01:57:27.060Z,53.8
2018-12-01T01:58:28.955Z,54
2018-12-01T01:59:30.569Z,53.7
2018-12-01T02:00:32.467Z,53.7
2018-12-01T02:01:34.069Z,53.7
2018-12-01T02:02:35.411Z,53.7
2018-12-01T02:03:37.307Z,53.8
2018-12-01T02:04:38.912Z,53.7
2018-12-01T02:05:40.530Z,53.9
2018-12-01T02:06:41.349Z,53.8
2018-12-01T02:07:43.242Z,53.8
2018-12-01T02:08:44.568Z,53.7
2018-12-01T02:09:45.613Z,53.7
2018-12-01T02:10:47.232Z,53.7
2018-12-01T02:11:49.130Z,53.8
2018-12-01T02:12:50.751Z,53.8
2018-12-01T02:13:52.647Z,53.8
2018-12-01T02:14:54.248Z,53.7
2018-12-01T02:15:55.596Z,53.8
2018-12-01T02:16:57.490Z,53.8
2018-12-01T02:17:59.386Z,53.7
2018-12-01T02:19:01.284Z,53.8
2018-12-01T02:20:03.180Z,53.9
2018-12-01T02:21:04.797Z,53.5
2018-12-01T02:22:06.394Z,53.7
2018-12-01T02:23:08.305Z,53.7
2018-12-01T02:24:10.068Z,53.7
2018-12-01T02:25:11.690Z,53.7
2018-12-01T02:26:13.312Z,53.5
2018-12-01T02:27:14.642Z,53.6
2018-12-01T02:28:15.715Z,53.5
2018-12-01T02:29:17.338Z,53.5
2018-12-01T02:30:18.971Z,53.4
2018-12-01T02:31:20.333Z,53.4
2018-12-01T02:32:21.957Z,53.5
2018-12-01T02:33:23.309Z,53.6
2018-12-01T02:34:25.200Z,53.7
2018-12-01T02:35:27.096Z,53.4
2018-12-01T02:36:28.714Z,53.6
2018-12-01T02:37:30.335Z,53.5
2018-12-01T02:38:31.956Z,53.6
2018-12-01T02:39:33.857Z,53.5
2018-12-01T02:40:35.481Z,53.7
2018-12-01T02:41:37.098Z,53.4
2018-12-01T02:42:38.989Z,53.5
2018-12-01T02:43:40.883Z,53.5
2018-12-01T02:44:41.954Z,53.5
2018-12-01T02:45:43.591Z,53.5
2018-12-01T02:46:45.203Z,53.7
2018-12-01T02:47:46.821Z,53.8
2018-12-01T02:48:48.205Z,53.6
2018-12-01T02:49:49.824Z,53.7
2018-12-01T02:50:51.424Z,53.7
2018-12-01T02:51:52.747Z,53.4
2018-12-01T02:52:54.089Z,53.7
2018-12-01T02:53:55.704Z,53.5
2018-12-01T02:54:57.325Z,53.5
2018-12-01T02:55:58.951Z,53.3
2018-12-01T02:57:00.846Z,53.8
2018-12-01T02:58:02.466Z,53.5
2018-12-01T02:59:04.087Z,53.5
2018-12-01T03:00:05.437Z,53.3
2018-12-01T03:01:06.762Z,53.3
2018-12-01T03:02:08.664Z,53.4
2018-12-01T03:03:10.555Z,53.5
2018-12-01T03:04:12.450Z,53.4
2018-12-01T03:05:13.777Z,53.4
2018-12-01T03:06:15.674Z,53.4
2018-12-01T03:07:17.329Z,53.4
2018-12-01T03:08:18.949Z,53.6
2018-12-01T03:09:20.568Z,53.6
2018-12-01T03:10:22.464Z,53.5
2018-12-01T03:11:24.357Z,53.6
2018-12-01T03:12:25.979Z,53.5
2018-12-01T03:13:27.598Z,53.5
2018-12-01T03:14:28.645Z,53.5
2018-12-01T03:15:29.994Z,53.4
2018-12-01T03:16:31.593Z,53.6
2018-12-01T03:17:33.215Z,53.5
2018-12-01T03:18:34.562Z,53.5
2018-12-01T03:19:35.918Z,53.7
2018-12-01T03:20:37.813Z,53.7
2018-12-01T03:21:39.433Z,53.7
2018-12-01T03:22:41.053Z,53.7
2018-12-01T03:23:42.684Z,53.5
2018-12-01T03:24:44.011Z,53.7
2018-12-01T03:25:45.060Z,53.6
2018-12-01T03:26:46.678Z,53.5
2018-12-01T03:27:48.298Z,53.5
2018-12-01T03:28:50.190Z,53.7
2018-12-01T03:29:52.085Z,53.5
2018-12-01T03:30:53.684Z,53.8
2018-12-01T03:31:55.581Z,53.8
2018-12-01T03:32:57.475Z,53.5
2018-12-01T03:33:59.078Z,53.8
2018-12-01T03:35:00.675Z,53.6
2018-12-01T03:36:01.723Z,53.5
2018-12-01T03:37:03.046Z,53.5
2018-12-01T03:38:04.667Z,53.7
2018-12-01T03:39:06.561Z,53.6
2018-12-01T03:40:08.475Z,53.5
2018-12-01T03:41:10.359Z,53.6
2018-12-01T03:42:11.978Z,53.6
2018-12-01T03:43:13.875Z,53.7
2018-12-01T03:44:15.496Z,53.6
2018-12-01T03:45:17.110Z,53.5
2018-12-01T03:46:19.029Z,53.8
2018-12-01T03:47:20.078Z,53.8
2018-12-01T03:48:21.699Z,53.7
2018-12-01T03:49:23.598Z,53.7
2018-12-01T03:50:25.193Z,53.7
2018-12-01T03:51:27.094Z,53.6
2018-12-01T03:52:28.437Z,53.7
2018-12-01T03:53:30.054Z,53.7
2018-12-01T03:54:31.678Z,53.7
2018-12-01T03:55:33.298Z,53.7
2018-12-01T03:56:35.196Z,53.7
2018-12-01T03:57:36.246Z,53.8
2018-12-01T03:58:37.863Z,53.8
2018-12-01T03:59:39.473Z,53.8
2018-12-01T04:00:41.363Z,53.7
2018-12-01T04:01:42.982Z,53.5
2018-12-01T04:02:44.312Z,53.8
2018-12-01T04:03:45.693Z,53.7
2018-12-01T04:04:47.016Z,53.8
2018-12-01T04:05:48.910Z,53.7
2018-12-01T04:06:49.966Z,53.7
2018-12-01T04:07:51.581Z,53.7
2018-12-01T04:08:53.198Z,53.7
2018-12-01T04:09:55.092Z,53.7
2018-12-01T04:10:57.006Z,53.7
2018-12-01T04:11:58.344Z,53.7
2018-12-01T04:13:00.241Z,53.7
2018-12-01T04:14:02.136Z,53.7
2018-12-01T04:15:04.032Z,53.7
2018-12-01T04:16:05.666Z,53.5
2018-12-01T04:17:07.567Z,53.5
2018-12-01T04:18:09.182Z,53.7
2018-12-01T04:19:11.080Z,53.7
2018-12-01T04:20:12.702Z,53.7
2018-12-01T04:21:14.322Z,53.6
2018-12-01T04:22:16.218Z,53.5
2018-12-01T04:23:17.858Z,53.7
2018-12-01T04:24:18.903Z,53.6
2018-12-01T04:25:20.522Z,53.6
2018-12-01T04:26:22.142Z,53.7
2018-12-01T04:27:23.226Z,53.7
2018-12-01T04:28:24.551Z,53.7
2018-12-01T04:29:26.171Z,54.1
2018-12-01T04:30:27.495Z,53.8
2018-12-01T04:31:29.390Z,53.8
2018-12-01T04:32:31.037Z,53.7
2018-12-01T04:33:32.371Z,53.7
2018-12-01T04:34:33.995Z,53.7
2018-12-01T04:35:35.890Z,53.7
2018-12-01T04:36:37.492Z,53.8
2018-12-01T04:37:39.116Z,53.8
2018-12-01T04:38:40.459Z,53.8
2018-12-01T04:39:42.061Z,53.7
2018-12-01T04:40:43.680Z,53.7
2018-12-01T04:41:44.723Z,53.6
2018-12-01T04:42:46.617Z,53.7
2018-12-01T04:43:47.939Z,53.7
2018-12-01T04:44:49.541Z,53.7
2018-12-01T04:45:51.140Z,53.8
2018-12-01T04:46:53.036Z,53.7
2018-12-01T04:47:54.365Z,53.7
2018-12-01T04:48:55.983Z,53.8
2018-12-01T04:49:57.305Z,53.7
2018-12-01T04:50:58.630Z,53.8
2018-12-01T04:52:00.248Z,53.7
2018-12-01T04:53:01.596Z,53.8
2018-12-01T04:54:03.211Z,53.7
2018-12-01T04:55:05.354Z,53.5
2018-12-01T04:56:06.682Z,53.7
2018-12-01T04:57:08.006Z,53.7
2018-12-01T04:58:09.620Z,53.7
2018-12-01T04:59:10.993Z,53.7
2018-12-01T05:00:12.615Z,53.7
2018-12-01T05:01:14.236Z,53.7
2018-12-01T05:02:15.854Z,53.7
2018-12-01T05:03:17.751Z,54.1
2018-12-01T05:04:19.646Z,53.8
2018-12-01T05:05:21.243Z,53.8
2018-12-01T05:06:23.139Z,53.7
2018-12-01T05:07:24.738Z,53.5
2018-12-01T05:08:26.062Z,53.6
2018-12-01T05:09:27.659Z,53.6
2018-12-01T05:10:29.555Z,53.6
2018-12-01T05:11:31.174Z,53.6
2018-12-01T05:12:32.799Z,53.5
2018-12-01T05:13:34.694Z,53.5
2018-12-01T05:14:36.623Z,53.5
2018-12-01T05:15:37.952Z,53.5
2018-12-01T05:16:39.570Z,53.5
2018-12-01T05:17:41.193Z,53.4
2018-12-01T05:18:43.092Z,53.5
2018-12-01T05:19:44.437Z,53.5
2018-12-01T05:20:45.824Z,53.5
2018-12-01T05:21:47.200Z,53.6
2018-12-01T05:22:48.543Z,53.5
2018-12-01T05:23:50.160Z,53.5
2018-12-01T05:24:52.060Z,53.5
2018-12-01T05:25:53.385Z,53.5
2018-12-01T05:26:54.716Z,53.8
2018-12-01T05:27:56.314Z,53.8
2018-12-01T05:28:57.658Z,53.7
2018-12-01T05:29:58.980Z,53.5
2018-12-01T05:31:00.304Z,53.4
2018-12-01T05:32:02.206Z,53.6
2018-12-01T05:33:03.799Z,53.6
2018-12-01T05:34:05.694Z,53.5
2018-12-01T05:35:07.591Z,53.8
2018-12-01T05:36:09.214Z,53.4
2018-12-01T05:37:10.557Z,53.5
2018-12-01T05:38:12.176Z,53.7
2018-12-01T05:39:14.090Z,53.7
2018-12-01T05:40:15.436Z,53.7
2018-12-01T05:41:17.057Z,53.7
2018-12-01T05:42:18.676Z,53.7
2018-12-01T05:43:20.006Z,53.7
2018-12-01T05:44:21.353Z,53.5
2018-12-01T05:45:22.950Z,53.5
2018-12-01T05:46:24.293Z,53.5
2018-12-01T05:47:25.943Z,53.5
2018-12-01T05:48:27.839Z,53.5
2018-12-01T05:49:29.479Z,53.7
2018-12-01T05:50:30.538Z,53.8
2018-12-01T05:51:32.139Z,53.6
2018-12-01T05:52:33.486Z,53.6
2018-12-01T05:53:35.387Z,53.7
2018-12-01T05:54:36.980Z,53.7
2018-12-01T05:55:38.602Z,53.7
2018-12-01T05:56:40.496Z,53.7
2018-12-01T05:57:42.391Z,53.7
2018-12-01T05:58:44.010Z,53.7
2018-12-01T05:59:45.907Z,53.7
2018-12-01T06:00:47.254Z,53.7
2018-12-01T06:01:48.856Z,53.7
2018-12-01T06:02:50.754Z,53.7
2018-12-01T06:03:52.082Z,53.7
2018-12-01T06:04:53.683Z,53.6
2018-12-01T06:05:55.581Z,53.6
2018-12-01T06:06:56.929Z,53.6
2018-12-01T06:07:58.826Z,53.5
2018-12-01T06:09:00.448Z,53.7
2018-12-01T06:10:02.071Z,53.7
2018-12-01T06:11:03.667Z,53.5
2018-12-01T06:12:05.283Z,53.5
2018-12-01T06:13:07.176Z,53.6
2018-12-01T06:14:08.496Z,53.4
2018-12-01T06:15:10.391Z,53.5
2018-12-01T06:16:11.995Z,53.5
2018-12-01T06:17:13.615Z,53.5
2018-12-01T06:18:15.246Z,53.7
2018-12-01T06:19:16.859Z,53.7
2018-12-01T06:20:18.453Z,53.7
2018-12-01T06:21:20.350Z,53.7
2018-12-01T06:22:22.244Z,53.7
2018-12-01T06:23:23.866Z,53.7
2018-12-01T06:24:25.762Z,53.7
2018-12-01T06:25:27.657Z,53.7
2018-12-01T06:26:29.306Z,53.6
2018-12-01T06:27:31.853Z,53.5
2018-12-01T06:28:33.812Z,53.7
2018-12-01T06:29:35.136Z,53.6
2018-12-01T06:30:36.757Z,53.8
2018-12-01T06:31:38.673Z,53.7
2018-12-01T06:32:40.017Z,53.8
2018-12-01T06:33:41.361Z,53.7
2018-12-01T06:34:43.257Z,53.7
2018-12-01T06:35:44.605Z,53.6
2018-12-01T06:36:45.669Z,54
2018-12-01T06:37:47.010Z,53.7
2018-12-01T06:38:48.916Z,53.7
2018-12-01T06:39:50.515Z,53.7
2018-12-01T06:40:52.414Z,53.7
2018-12-01T06:41:54.009Z,53.6
2018-12-01T06:42:55.057Z,53.7
2018-12-01T06:43:56.952Z,53.6
2018-12-01T06:44:58.571Z,53.8
2018-12-01T06:46:00.172Z,53.7
2018-12-01T06:47:02.067Z,53.7
2018-12-01T06:48:03.666Z,53.6
2018-12-01T06:49:05.011Z,53.7
2018-12-01T06:50:06.905Z,53.7
2018-12-01T06:51:08.246Z,53.7
2018-12-01T06:52:09.867Z,53.7
2018-12-01T06:53:11.765Z,53.6
2018-12-01T06:54:13.112Z,54
2018-12-01T06:55:14.452Z,53.7
2018-12-01T06:56:15.777Z,53.7
2018-12-01T06:57:17.671Z,53.7
2018-12-01T06:58:19.290Z,53.7
2018-12-01T06:59:20.639Z,53.6
2018-12-01T07:00:22.238Z,53.9
2018-12-01T07:01:24.135Z,53.7
2018-12-01T07:02:25.251Z,53.7
2018-12-01T07:03:26.603Z,53.6
2018-12-01T07:04:28.496Z,53.7
2018-12-01T07:05:29.818Z,53.7
2018-12-01T07:06:31.716Z,53.6
2018-12-01T07:07:33.083Z,53.7
2018-12-01T07:08:34.982Z,53.6
2018-12-01T07:09:36.327Z,53.7
2018-12-01T07:10:37.967Z,53.7
2018-12-01T07:11:39.592Z,53.6
2018-12-01T07:12:41.192Z,53.9
2018-12-01T07:13:42.520Z,53.8
2018-12-01T07:14:44.139Z,53.8
2018-12-01T07:15:45.466Z,53.8
2018-12-01T07:16:48.132Z,53.9
2018-12-01T07:17:50.027Z,53.9
2018-12-01T07:18:51.653Z,53.8
2018-12-01T07:19:53.548Z,53.8
2018-12-01T07:20:54.871Z,53.7
2018-12-01T07:21:56.764Z,53.9
2018-12-01T07:22:58.669Z,53.9
2018-12-01T07:24:00.557Z,53.9
2018-12-01T07:25:01.612Z,53.8
2018-12-01T07:26:03.234Z,53.9
2018-12-01T07:27:05.129Z,53.8
2018-12-01T07:28:06.785Z,53.8
2018-12-01T07:29:08.681Z,54.1
2018-12-01T07:30:10.027Z,53.9
2018-12-01T07:31:11.646Z,53.8
2018-12-01T07:32:12.692Z,53.8
2018-12-01T07:33:14.619Z,53.9
2018-12-01T07:34:16.238Z,53.9
2018-12-01T07:35:18.157Z,53.8
2018-12-01T07:36:20.041Z,53.9
2018-12-01T07:37:21.668Z,54.2
2018-12-01T07:38:22.791Z,54
2018-12-01T07:39:24.411Z,54
2018-12-01T07:40:26.035Z,54
2018-12-01T07:41:27.657Z,54
2018-12-01T07:42:29.307Z,54.1
2018-12-01T07:43:30.923Z,53.9
2018-12-01T07:44:32.247Z,54
2018-12-01T07:45:34.142Z,54
2018-12-01T07:46:35.188Z,53.9
2018-12-01T07:47:36.786Z,53.9
2018-12-01T07:48:38.696Z,54.2
2018-12-01T07:49:40.310Z,54
2018-12-01T07:50:41.932Z,54.2
2018-12-01T07:51:43.556Z,54
2018-12-01T07:52:45.179Z,54
2018-12-01T07:53:46.851Z,53.9
2018-12-01T07:54:48.752Z,54
2018-12-01T07:55:50.075Z,54.2
2018-12-01T07:56:51.702Z,54.5
2018-12-01T07:57:53.331Z,54.1
2018-12-01T07:58:54.948Z,54.1
2018-12-01T07:59:56.570Z,54.1
2018-12-01T08:00:57.899Z,54.2
2018-12-01T08:01:59.519Z,54.1
2018-12-01T08:03:01.147Z,54
2018-12-01T08:04:02.743Z,54.1
2018-12-01T08:05:04.365Z,53.9
2018-12-01T08:06:06.261Z,54.3
2018-12-01T08:07:07.604Z,54.1
2018-12-01T08:08:09.229Z,54.1
2018-12-01T08:09:11.124Z,54.4
2018-12-01T08:10:12.745Z,54.3
2018-12-01T08:11:14.639Z,54.2
2018-12-01T08:12:16.571Z,54.4
2018-12-01T08:13:18.466Z,54.3
2018-12-01T08:14:20.087Z,54.3
2018-12-01T08:15:21.441Z,54.2
2018-12-01T08:16:23.043Z,54.4
2018-12-01T08:17:24.946Z,54.3
2018-12-01T08:18:26.565Z,54.2
2018-12-01T08:19:28.191Z,54.3
2018-12-01T08:20:30.080Z,54.3
2018-12-01T08:21:31.980Z,54.3
2018-12-01T08:22:33.602Z,54.2
2018-12-01T08:23:35.225Z,54.3
2018-12-01T08:24:36.846Z,54.1
2018-12-01T08:25:38.471Z,54.4
2018-12-01T08:26:40.094Z,54.1
2018-12-01T08:27:41.417Z,54.1
2018-12-01T08:28:43.323Z,54.4
2018-12-01T08:29:44.943Z,54.1
2018-12-01T08:30:46.284Z,54.4
2018-12-01T08:31:47.905Z,54.3
2018-12-01T08:32:49.823Z,54.4
2018-12-01T08:33:51.226Z,54.2
2018-12-01T08:34:53.120Z,54.2
2018-12-01T08:35:55.018Z,54.1
2018-12-01T08:36:56.640Z,54.3
2018-12-01T08:37:58.534Z,54.1
2018-12-01T08:39:00.479Z,54.2
2018-12-01T08:40:01.803Z,54.4
2018-12-01T08:41:03.702Z,54.3
2018-12-01T08:42:05.600Z,54.4
2018-12-01T08:43:07.496Z,54.4
2018-12-01T08:44:09.126Z,54.3
2018-12-01T08:45:11.017Z,54.4
2018-12-01T08:46:12.920Z,54.4
2018-12-01T08:47:14.250Z,54.2
2018-12-01T08:48:15.571Z,54.2
2018-12-01T08:49:17.502Z,54.2
2018-12-01T08:50:19.123Z,54.4
2018-12-01T08:51:20.742Z,54.4
2018-12-01T08:52:22.089Z,54.2
2018-12-01T08:53:23.708Z,54.3
2018-12-01T08:54:25.054Z,54.1
2018-12-01T08:55:26.951Z,54.1
2018-12-01T08:56:28.572Z,54.1
2018-12-01T08:57:30.212Z,54.1
2018-12-01T08:58:31.837Z,54.1
2018-12-01T08:59:33.786Z,54.3
2018-12-01T09:00:35.684Z,54.1
2018-12-01T09:01:37.579Z,54.1
2018-12-01T09:02:39.176Z,54.3
2018-12-01T09:03:40.778Z,54.3
2018-12-01T09:04:42.126Z,54.2
2018-12-01T09:05:43.466Z,54.1
2018-12-01T09:06:45.091Z,54.1
2018-12-01T09:07:46.986Z,54.4
2018-12-01T09:08:48.311Z,54.4
2018-12-01T09:09:50.208Z,54.4
2018-12-01T09:10:51.811Z,54.3
2018-12-01T09:11:53.432Z,54.3
2018-12-01T09:12:55.053Z,54.3
2018-12-01T09:13:56.677Z,54.3
2018-12-01T09:14:58.574Z,54.4
2018-12-01T09:15:59.955Z,54.4
2018-12-01T09:17:01.574Z,54.4
2018-12-01T09:18:03.473Z,54.4
2018-12-01T09:19:04.545Z,54.4
2018-12-01T09:20:05.889Z,54.4
2018-12-01T09:21:07.786Z,54.4
2018-12-01T09:22:09.414Z,54.8
2018-12-01T09:23:11.031Z,54.4
2018-12-01T09:24:13.579Z,54.4
2018-12-01T09:25:15.476Z,54.6
2018-12-01T09:26:17.098Z,54.5
2018-12-01T09:27:23.082Z,54.3
2018-12-01T09:28:24.682Z,54.3
2018-12-01T09:29:26.303Z,54.3
2018-12-01T09:30:28.197Z,54.7
2018-12-01T09:31:29.539Z,54.5
2018-12-01T09:32:31.159Z,54.5
2018-12-01T09:33:32.780Z,54.5
2018-12-01T09:34:34.683Z,54.7
2018-12-01T09:35:36.301Z,54.7
2018-12-01T09:36:37.930Z,54.5
2018-12-01T09:37:39.582Z,54.3
2018-12-01T09:38:41.481Z,54.6
2018-12-01T09:39:43.378Z,54.8
2018-12-01T09:40:45.277Z,54.8
2018-12-01T09:41:47.176Z,54.7
2018-12-01T09:42:48.794Z,54.7
2018-12-01T09:43:50.121Z,54.6
2018-12-01T09:44:52.049Z,54.6
2018-12-01T09:45:53.945Z,55
2018-12-01T09:46:55.567Z,54.8
2018-12-01T09:47:57.470Z,54.6
2018-12-01T09:48:59.362Z,54.5
2018-12-01T09:50:00.983Z,54.6
2018-12-01T09:51:02.338Z,54.6
2018-12-01T09:52:04.224Z,55
2018-12-01T09:53:06.149Z,54.6
2018-12-01T09:54:08.044Z,54.6
2018-12-01T09:55:09.671Z,54.4
2018-12-01T09:56:11.570Z,54.5
2018-12-01T09:57:12.638Z,54.5
2018-12-01T09:58:14.566Z,54.6
2018-12-01T09:59:15.910Z,54.4
2018-12-01T10:00:17.257Z,54.4
2018-12-01T10:01:18.586Z,54.6
2018-12-01T10:02:20.483Z,54.7
2018-12-01T10:03:21.808Z,54.8
2018-12-01T10:04:23.431Z,54.9
2018-12-01T10:05:24.761Z,54.7
2018-12-01T10:06:26.362Z,54.8
2018-12-01T10:07:27.715Z,54.8
2018-12-01T10:08:29.067Z,54.7
2018-12-01T10:09:30.959Z,54.7
2018-12-01T10:10:32.304Z,54.9
2018-12-01T10:11:33.903Z,54.9
2018-12-01T10:12:35.527Z,54.8
2018-12-01T10:13:37.423Z,54.9
2018-12-01T10:14:39.322Z,54.9
2018-12-01T10:15:41.220Z,54.8
2018-12-01T10:16:42.569Z,54.7
2018-12-01T10:17:43.898Z,54.9
2018-12-01T10:18:45.243Z,54.9
2018-12-01T10:19:46.863Z,54.8
2018-12-01T10:20:48.191Z,55
2018-12-01T10:21:49.789Z,54.9
2018-12-01T10:22:50.861Z,54.5
2018-12-01T10:23:52.462Z,55
2018-12-01T10:24:54.363Z,54.6
2018-12-01T10:25:56.255Z,54.6
2018-12-01T10:26:57.860Z,54.9
2018-12-01T10:27:59.458Z,54.8
2018-12-01T10:29:01.355Z,54.6
2018-12-01T10:30:02.952Z,54.7
2018-12-01T10:31:04.299Z,54.7
2018-12-01T10:32:06.196Z,54.4
2018-12-01T10:33:07.547Z,55
2018-12-01T10:34:09.147Z,54.3
2018-12-01T10:35:10.202Z,54.8
2018-12-01T10:36:11.821Z,54.7
2018-12-01T10:37:13.440Z,54.7
2018-12-01T10:38:14.961Z,54.3
2018-12-01T10:39:16.329Z,54.2
2018-12-01T10:40:17.656Z,54.4
2018-12-01T10:41:18.977Z,54.3
2018-12-01T10:42:20.575Z,54.3
2018-12-01T10:43:22.182Z,54.3
2018-12-01T10:44:24.076Z,54.4
2018-12-01T10:45:25.972Z,54.3
2018-12-01T10:46:27.296Z,54.3
2018-12-01T10:47:28.968Z,54.8
2018-12-01T10:48:30.589Z,54.3
2018-12-01T10:49:31.933Z,54.3
2018-12-01T10:50:33.555Z,54.3
2018-12-01T10:51:35.180Z,54.2
2018-12-01T10:52:36.499Z,54.4
2018-12-01T10:53:38.137Z,54.8
2018-12-01T10:54:40.036Z,54.8
2018-12-01T10:55:41.090Z,54.4
2018-12-01T10:56:42.712Z,54.6
2018-12-01T10:57:44.364Z,54.3
2018-12-01T10:58:45.688Z,54.4
2018-12-01T10:59:47.313Z,54.3
2018-12-01T11:00:49.220Z,54.1
2018-12-01T11:01:51.117Z,54.3
2018-12-01T11:02:56.159Z,54.4
2018-12-01T11:03:57.781Z,54.2
2018-12-01T11:04:59.401Z,54.3
2018-12-01T11:06:01.010Z,54.1
2018-12-01T11:07:02.630Z,54.2
2018-12-01T11:08:04.252Z,54.1
2018-12-01T11:09:05.869Z,54.3
2018-12-01T11:10:07.491Z,54.2
2018-12-01T11:11:08.816Z,54.4
2018-12-01T11:12:10.445Z,54.3
2018-12-01T11:13:11.785Z,54.3
2018-12-01T11:14:13.670Z,54.8
2018-12-01T11:15:15.292Z,54.5
2018-12-01T11:16:16.921Z,54.3
2018-12-01T11:17:18.818Z,54.3
2018-12-01T11:18:20.728Z,54.7
2018-12-01T11:19:22.073Z,54.5
2018-12-01T11:20:23.689Z,54.4
2018-12-01T11:21:25.310Z,54.6
2018-12-01T11:22:26.659Z,54.4
2018-12-01T11:23:27.983Z,54.2
2018-12-01T11:24:29.315Z,54.1
2018-12-01T11:25:31.218Z,54.2
2018-12-01T11:26:32.842Z,54.5
2018-12-01T11:27:34.462Z,54.2
2018-12-01T11:28:36.065Z,54.1
2018-12-01T11:29:37.685Z,54
2018-12-01T11:30:39.583Z,54.2
2018-12-01T11:31:41.480Z,54.3
2018-12-01T11:32:42.827Z,54.4
2018-12-01T11:33:44.725Z,54.2
2018-12-01T11:34:46.350Z,54.4
2018-12-01T11:35:47.989Z,54.1
2018-12-01T11:36:49.615Z,54.2
2018-12-01T11:37:51.214Z,54.1
2018-12-01T11:38:53.155Z,54.1
2018-12-01T11:39:54.763Z,54
2018-12-01T11:40:56.366Z,54.4
2018-12-01T11:41:58.262Z,54.4
2018-12-01T11:42:59.888Z,54.4
2018-12-01T11:44:01.787Z,54.3
2018-12-01T11:45:03.689Z,54.1
2018-12-01T11:46:05.312Z,54.4
2018-12-01T11:47:06.363Z,54.3
2018-12-01T11:48:08.257Z,54.4
2018-12-01T11:49:09.880Z,54
2018-12-01T11:50:11.774Z,54.3
2018-12-01T11:51:13.422Z,54.4
2018-12-01T11:52:15.318Z,54.1
2018-12-01T11:53:16.936Z,54.3
2018-12-01T11:54:18.558Z,54
2018-12-01T11:55:19.886Z,54.1
2018-12-01T11:56:21.504Z,54
2018-12-01T11:57:23.123Z,54.2
2018-12-01T11:58:25.023Z,53.8
2018-12-01T11:59:26.624Z,53.9
2018-12-01T12:00:28.518Z,53.9
2018-12-01T12:01:30.414Z,53.9
2018-12-01T12:02:31.743Z,54.2
2018-12-01T12:03:33.088Z,53.9
2018-12-01T12:04:34.984Z,53.8
2018-12-01T12:05:36.606Z,53.8
2018-12-01T12:06:37.932Z,53.8
2018-12-01T12:07:39.830Z,53.7
2018-12-01T12:08:41.155Z,53.8
2018-12-01T12:09:43.075Z,53.6
2018-12-01T12:10:44.686Z,53.6
2018-12-01T12:11:46.030Z,53.5
2018-12-01T12:12:47.638Z,53.7
2018-12-01T12:13:49.531Z,53.5
2018-12-01T12:14:52.677Z,53.5
2018-12-01T12:15:54.572Z,53.5
2018-12-01T12:16:56.215Z,53.7
2018-12-01T12:17:56.992Z,53.5
2018-12-01T12:18:58.612Z,53.5
2018-12-01T12:19:59.662Z,53.5
2018-12-01T12:21:01.285Z,53.3
2018-12-01T12:22:02.638Z,53.6
2018-12-01T12:23:03.979Z,53.5
2018-12-01T12:24:05.362Z,53.6
2018-12-01T12:25:06.688Z,53.6
2018-12-01T12:26:08.588Z,53.9
2018-12-01T12:27:10.483Z,53.7
2018-12-01T12:28:12.105Z,53.6
2018-12-01T12:29:13.436Z,53.6
2018-12-01T12:30:15.056Z,53.6
2018-12-01T12:31:16.955Z,53.3
2018-12-01T12:32:18.306Z,53.8
2018-12-01T12:33:20.200Z,53.1
2018-12-01T12:34:21.827Z,53.1
2018-12-01T12:35:23.451Z,53
2018-12-01T12:36:24.532Z,53.4
2018-12-01T12:37:25.879Z,53
2018-12-01T12:38:27.777Z,53.2
2018-12-01T12:39:29.400Z,53.2
2018-12-01T12:40:31.022Z,53.4
2018-12-01T12:41:32.918Z,53.6
2018-12-01T12:42:34.249Z,53.2
2018-12-01T12:43:36.146Z,53.3
2018-12-01T12:44:38.044Z,53.4
2018-12-01T12:45:39.941Z,53.4
2018-12-01T12:46:41.561Z,53.3
2018-12-01T12:47:42.907Z,53.1
2018-12-01T12:48:43.959Z,53.1
2018-12-01T12:49:45.561Z,52.8
2018-12-01T12:50:46.908Z,52.8
2018-12-01T12:51:54.500Z,52.9
2018-12-01T12:52:56.398Z,52.9
2018-12-01T12:53:58.030Z,53
2018-12-01T12:54:59.676Z,52.8
2018-12-01T12:56:01.006Z,52.9
2018-12-01T12:57:02.626Z,52.8
2018-12-01T12:58:04.248Z,52.8
2018-12-01T12:59:06.146Z,52.8
2018-12-01T13:00:08.046Z,52.8
2018-12-01T13:01:09.670Z,52.8
2018-12-01T13:02:11.291Z,52.8
2018-12-01T13:03:12.910Z,52.8
2018-12-01T13:04:14.807Z,52.9
2018-12-01T13:05:16.141Z,52.9
2018-12-01T13:06:17.533Z,52.9
2018-12-01T13:07:19.154Z,52.9
2018-12-01T13:08:20.206Z,53
2018-12-01T13:09:21.297Z,53
2018-12-01T13:10:23.192Z,53.1
2018-12-01T13:11:24.814Z,52.9
2018-12-01T13:12:26.708Z,52.8
2018-12-01T13:13:28.610Z,52.8
2018-12-01T13:14:29.961Z,52.8
2018-12-01T13:15:31.583Z,52.7
2018-12-01T13:16:33.205Z,52.8
2018-12-01T13:17:35.100Z,52.8
2018-12-01T13:18:36.995Z,52.8
2018-12-01T13:19:38.893Z,52.7
2018-12-01T13:20:40.512Z,52.6
2018-12-01T13:21:42.133Z,52.7
2018-12-01T13:22:44.038Z,52.7
2018-12-01T13:23:45.941Z,52.7
2018-12-01T13:24:47.588Z,52.7
2018-12-01T13:25:49.214Z,52.6
2018-12-01T13:26:50.834Z,52.8
2018-12-01T13:27:52.497Z,52.7
2018-12-01T13:28:54.393Z,52.6
2018-12-01T13:29:55.999Z,52.8
2018-12-01T13:30:57.620Z,52.8
2018-12-01T13:31:58.968Z,52.5
2018-12-01T13:33:00.041Z,52.6
2018-12-01T13:34:01.667Z,52.5
2018-12-01T13:35:03.565Z,52.6
2018-12-01T13:36:05.186Z,52.6
2018-12-01T13:37:06.812Z,52.4
2018-12-01T13:38:08.710Z,52.8
2018-12-01T13:39:09.786Z,52.7
2018-12-01T13:40:11.685Z,52.7
2018-12-01T13:41:13.288Z,52.7
2018-12-01T13:42:15.183Z,52.6
2018-12-01T13:43:16.283Z,52.4